Time;durP1;ratioP1;P1;durP2;ratioP2;P2;SDS_P1;SDS_P2;PMS_P1;PMS_P2;Temp;Humidity;BMP_temperature;BMP_pressure;BME280_temperature;BME280_humidity;BME280_pressure;Samples;Min_cycle;Max_cycle;Signal;HPM_P1;HPM_P2
2023/08/07 00:07:18;;;;;;;23.85;7.05;;;;;;;31.60;52.15;98895.81;31666236;28;20488;-74
2023/08/07 00:22:21;;;;;;;13.75;7.53;;;;;;;31.61;51.55;98874.09;31657567;28;20126;-75
2023/08/07 00:37:23;;;;;;;9.77;7.00;;;;;;;31.32;52.39;98866.47;31659271;28;20079;-77
2023/08/07 00:52:25;;;;;;;22.17;7.93;;;;;;;31.11;52.94;98855.13;31667775;28;20079;-76
2023/08/07 01:07:27;;;;;;;18.75;7.85;;;;;;;30.98;53.42;98849.94;31654206;28;20056;-75
2023/08/07 01:22:29;;;;;;;12.93;7.68;;;;;;;30.67;54.56;98878.56;31671598;27;20397;-76
2023/08/07 01:37:34;;;;;;;13.48;7.97;;;;;;;30.67;54.13;98864.56;31659570;28;20047;-75
2023/08/07 01:52:36;;;;;;;15.65;8.30;;;;;;;30.61;54.00;98864.09;31648209;28;20527;-77
2023/08/07 02:07:38;;;;;;;17.60;11.45;;;;;;;30.75;53.78;98861.59;31651450;28;20047;-77
2023/08/07 02:22:40;;;;;;;25.92;14.23;;;;;;;30.52;54.17;98853.56;31656206;28;20511;-77
2023/08/07 02:37:42;;;;;;;20.83;9.93;;;;;;;30.45;54.43;98852.41;31639026;28;20079;-75
2023/08/07 02:52:44;;;;;;;23.13;11.02;;;;;;;30.35;54.65;98865.63;31648609;28;20484;-77
2023/08/07 03:07:46;;;;;;;22.02;11.80;;;;;;;30.33;55.70;98875.94;31659949;28;20392;-76
2023/08/07 03:22:48;;;;;;;26.10;14.18;;;;;;;30.28;56.35;98876.94;31669229;28;20082;-77
2023/08/07 03:37:50;;;;;;;27.77;16.05;;;;;;;30.55;56.04;98844.00;31686696;28;20062;-76
2023/08/07 03:52:52;;;;;;;30.50;16.55;;;;;;;30.50;56.92;98859.03;31668743;28;20048;-76
2023/08/07 04:07:54;;;;;;;33.65;17.95;;;;;;;30.63;57.87;98860.72;31669831;28;20074;-77
2023/08/07 04:22:56;;;;;;;29.67;15.90;;;;;;;31.12;57.94;98860.16;31678157;28;20079;-76
2023/08/07 04:37:58;;;;;;;31.48;17.65;;;;;;;31.95;57.38;98872.97;31676839;28;20102;-76
2023/08/07 04:53:01;;;;;;;33.45;17.83;;;;;;;32.13;57.83;98891.81;31656083;28;20063;-77
2023/08/07 05:08:03;;;;;;;26.13;15.90;;;;;;;32.65;59.03;98905.16;31658869;28;20079;-75
2023/08/07 05:23:05;;;;;;;21.02;13.50;;;;;;;33.31;62.53;98891.22;31662251;28;20055;-77
2023/08/07 05:38:07;;;;;;;13.10;7.80;;;;;;;33.76;76.37;98879.97;31647789;28;20108;-76
2023/08/07 05:53:09;;;;;;;12.32;7.18;;;;;;;34.79;80.42;98877.75;31659859;28;20135;-79
2023/08/07 06:08:11;;;;;;;11.90;6.88;;;;;;;35.57;78.37;98874.38;31677395;28;20101;-76
2023/08/07 06:23:13;;;;;;;11.57;5.72;;;;;;;35.89;78.49;98881.06;31670379;28;20079;-78
2023/08/07 06:38:15;;;;;;;11.98;7.13;;;;;;;35.43;85.06;98882.78;31664293;28;20056;-77
2023/08/07 06:53:17;;;;;;;11.15;7.38;;;;;;;36.03;82.88;98878.97;31642624;28;20484;-77
2023/08/07 07:08:19;;;;;;;11.95;7.25;;;;;;;36.80;78.48;98910.50;31636397;28;20415;-73
2023/08/07 07:23:21;;;;;;;12.70;7.20;;;;;;;37.10;75.70;98916.91;31631527;28;20063;-74
2023/08/07 07:38:23;;;;;;;7.88;5.95;;;;;;;37.68;73.26;98946.63;31609257;28;20048;-75
2023/08/07 07:53:26;;;;;;;9.63;6.07;;;;;;;38.19;67.31;98956.09;31640786;28;20135;-75
2023/08/07 08:08:28;;;;;;;11.15;4.10;;;;;;;38.74;60.41;98969.84;31656692;28;20055;-77
2023/08/07 08:23:30;;;;;;;6.80;3.85;;;;;;;39.49;55.76;98992.88;31645930;28;20079;-75
2023/08/07 08:38:33;;;;;;;8.32;4.15;;;;;;;39.44;56.31;99014.00;31650794;28;20048;-76
2023/08/07 08:53:36;;;;;;;10.45;3.33;;;;;;;39.99;50.68;99024.69;31661213;28;20093;-76
2023/08/07 09:08:40;;;;;;;9.02;3.85;;;;;;;40.22;49.96;99029.09;31640883;28;20055;-76
2023/08/07 09:23:43;;;;;;;14.73;3.95;;;;;;;40.63;45.48;99019.97;31659519;28;20127;-74
2023/08/07 09:38:49;;;;;;;5.90;4.13;;;;;;;41.45;43.04;99046.31;31636934;28;20482;-75
2023/08/07 09:53:52;;;;;;;7.32;3.47;;;;;;;41.88;39.82;99054.13;31646749;28;20044;-77
2023/08/07 10:08:56;;;;;;;8.40;5.40;;;;;;;41.84;38.89;99068.22;31661578;28;20051;-76
2023/08/07 10:24:00;;;;;;;8.98;3.25;;;;;;;42.27;36.97;99078.13;31633496;28;20142;-76
2023/08/07 10:39:08;;;;;;;7.90;3.95;;;;;;;42.56;36.87;99089.00;31662813;28;20051;-76
2023/08/07 10:54:10;;;;;;;9.02;3.65;;;;;;;42.78;35.46;99095.34;31652029;28;20084;-77
2023/08/07 11:09:12;;;;;;;5.82;3.17;;;;;;;42.86;36.01;99106.28;31668497;28;20054;-77
2023/08/07 11:24:18;;;;;;;6.28;2.58;;;;;;;43.14;34.76;99106.34;31652542;28;20122;-76
2023/08/07 11:39:21;;;;;;;3.63;2.67;;;;;;;41.42;35.28;99110.28;31676175;28;20091;-77
2023/08/07 11:54:23;;;;;;;7.25;3.20;;;;;;;40.19;36.32;99115.66;31669961;28;20054;-76
2023/08/07 12:09:26;;;;;;;8.18;3.13;;;;;;;38.96;37.09;99114.78;31676440;28;20083;-76
2023/08/07 12:24:28;;;;;;;5.75;3.67;;;;;;;38.54;37.95;99124.88;31674065;28;20094;-77
2023/08/07 12:39:30;;;;;;;6.88;4.07;;;;;;;38.06;38.26;99112.69;31675380;28;20099;-77
2023/08/07 12:54:35;;;;;;;8.23;5.07;;;;;;;37.94;38.18;99143.28;31659793;28;20056;-78
2023/08/07 13:09:37;;;;;;;11.63;6.65;;;;;;;37.85;38.92;99147.06;31673787;28;20139;-76
2023/08/07 13:24:39;;;;;;;10.18;6.15;;;;;;;37.71;39.14;99160.53;31649725;28;20048;-79
2023/08/07 13:39:41;;;;;;;7.70;5.18;;;;;;;37.35;38.98;99182.75;31657376;28;20052;-76
2023/08/07 13:54:43;;;;;;;8.10;4.60;;;;;;;37.08;38.23;99180.63;31639109;28;20090;-75
2023/08/07 14:09:45;;;;;;;8.15;4.18;;;;;;;36.99;38.30;99180.81;31667235;28;20048;-78
2023/08/07 14:24:47;;;;;;;5.60;3.90;;;;;;;36.98;38.36;99202.72;31636456;28;20051;-76
2023/08/07 14:39:49;;;;;;;5.47;3.72;;;;;;;36.46;37.60;99206.19;31648977;28;20476;-75
2023/08/07 14:54:55;;;;;;;6.63;3.30;;;;;;;36.25;38.21;99215.63;31629220;28;20044;-76
2023/08/07 15:09:57;;;;;;;5.05;4.10;;;;;;;35.78;37.72;99226.28;31641300;28;20173;-74
2023/08/07 15:24:59;;;;;;;8.55;3.95;;;;;;;35.78;37.78;99243.22;31653665;28;20072;-75
2023/08/07 15:40:02;;;;;;;5.25;3.22;;;;;;;35.46;38.72;99251.19;31635088;28;20044;-74
2023/08/07 15:55:05;;;;;;;7.50;5.63;;;;;;;35.12;38.64;99272.34;31658009;28;20075;-77
2023/08/07 16:10:07;;;;;;;4.78;3.08;;;;;;;35.05;39.39;99286.69;31626660;28;20043;-74
2023/08/07 16:25:09;;;;;;;5.65;3.13;;;;;;;34.61;40.63;99310.66;31672793;28;20511;-73
2023/08/07 16:40:11;;;;;;;4.85;2.78;;;;;;;34.26;42.01;99320.94;31663473;28;20048;-78
2023/08/07 16:55:14;;;;;;;5.60;3.40;;;;;;;34.13;41.62;99342.69;31659942;28;20132;-75
2023/08/07 17:10:16;;;;;;;8.63;4.20;;;;;;;33.73;42.40;99365.22;31661358;28;20419;-75
2023/08/07 17:25:18;;;;;;;5.15;3.75;;;;;;;32.85;44.81;99389.91;31661224;28;20043;-77
2023/08/07 17:40:20;;;;;;;7.53;3.78;;;;;;;32.55;44.38;99421.34;31656486;28;20056;-74
2023/08/07 17:55:23;;;;;;;5.03;2.80;;;;;;;32.11;44.84;99436.28;31651508;28;20036;-74
2023/08/07 18:10:25;;;;;;;13.43;6.35;;;;;;;31.72;45.79;99457.03;31651301;28;20075;-73
2023/08/07 18:25:27;;;;;;;9.88;6.05;;;;;;;31.89;45.49;99462.59;31617851;28;20132;-74
2023/08/07 18:40:29;;;;;;;8.30;6.00;;;;;;;31.77;46.10;99465.19;31651959;28;20082;-76
2023/08/07 18:55:33;;;;;;;8.27;5.53;;;;;;;31.68;46.90;99484.75;31641178;28;20504;-74
2023/08/07 19:10:35;;;;;;;13.18;8.27;;;;;;;31.59;47.69;99491.03;31633951;28;20704;-76
2023/08/07 19:25:37;;;;;;;16.85;11.05;;;;;;;31.42;49.23;99503.72;31635704;28;20127;-76
2023/08/07 19:40:39;;;;;;;11.70;8.50;;;;;;;31.26;49.94;99524.84;31640630;28;20101;-76
2023/08/07 19:55:41;;;;;;;9.63;4.22;;;;;;;31.34;50.78;99533.94;31642528;28;20535;-75
2023/08/07 20:10:43;;;;;;;16.02;7.47;;;;;;;31.46;51.63;99543.31;31667623;28;20134;-76
2023/08/07 20:25:45;;;;;;;6.43;3.78;;;;;;;31.30;52.99;99542.00;31662568;28;20139;-75
2023/08/07 20:40:47;;;;;;;5.85;3.95;;;;;;;31.15;54.52;99553.38;31641158;28;20468;-76
2023/08/07 20:55:51;;;;;;;4.85;3.40;;;;;;;30.91;55.83;99582.16;31667251;28;20043;-75
2023/08/07 21:10:54;;;;;;;4.78;3.10;;;;;;;31.11;55.71;99589.44;31673658;28;20071;-78
2023/08/07 21:25:56;;;;;;;5.47;2.85;;;;;;;30.70;56.53;99593.72;31656589;28;20047;-77
2023/08/07 21:40:59;;;;;;;4.20;3.22;;;;;;;30.37;57.48;99590.88;31644927;28;20086;-78
2023/08/07 21:56:01;;;;;;;5.60;3.70;;;;;;;30.22;58.45;99601.44;31659608;28;20065;-76
2023/08/07 22:11:03;;;;;;;;;;;;;;;29.87;60.33;99612.34;31644912;28;20134;-74
2023/08/07 22:26:05;;;;;;;5.22;3.40;;;;;;;29.57;61.37;99606.81;31622843;28;19924;-73
2023/08/07 22:41:07;;;;;;;4.73;2.87;;;;;;;29.47;61.12;99613.00;31633376;28;20052;-74
2023/08/07 22:56:09;;;;;;;7.70;3.08;;;;;;;29.25;60.84;99638.91;31642422;28;20135;-74
2023/08/07 23:11:11;;;;;;;3.20;2.27;;;;;;;29.00;60.97;99640.75;31639769;28;20138;-74
2023/08/07 23:26:13;;;;;;;3.47;1.80;;;;;;;28.89;60.45;99641.09;31624715;28;20131;-73
2023/08/07 23:41:16;;;;;;;5.27;2.23;;;;;;;28.58;61.60;99641.03;31640947;28;20054;-73
2023/08/07 23:56:19;;;;;;;3.78;2.40;;;;;;;28.51;61.75;99648.09;31659097;28;20047;-73
